Time;durP1;ratioP1;P1;durP2;ratioP2;P2;SDS_P1;SDS_P2;PMS_P1;PMS_P2;Temp;Humidity;BMP_temperature;BMP_pressure;BME280_temperature;BME280_humidity;BME280_pressure;Samples;Min_cycle;Max_cycle;Signal;HPM_P1;HPM_P2
2023/05/06 00:03:09;;;;;;;34.70;20.30;;;23.90;59.30;;;;;;223817;1265;24202;-59
2023/05/06 00:08:14;;;;;;;37.20;22.20;;;24.10;58.80;;;;;;225156;1263;22534;-58
2023/05/06 00:13:18;;;;;;;33.80;20.00;;;24.20;58.30;;;;;;223121;1266;25207;-61
2023/05/06 00:18:23;;;;;;;35.40;19.80;;;24.00;58.80;;;;;;222752;1266;22652;-59
2023/05/06 00:23:28;;;;;;;30.30;18.90;;;23.90;59.00;;;;;;222734;1263;23909;-65
2023/05/06 00:28:32;;;;;;;27.50;18.80;;;24.00;59.10;;;;;;222775;1266;24196;-59
2023/05/06 00:33:37;;;;;;;30.40;18.80;;;23.80;59.40;;;;;;222799;1266;25394;-60
2023/05/06 00:38:41;;;;;;;31.90;18.10;;;23.80;59.30;;;;;;223140;1264;22629;-58
2023/05/06 00:43:46;;;;;;;31.20;18.30;;;23.80;59.30;;;;;;222730;1269;22526;-63
2023/05/06 00:48:51;;;;;;;28.00;17.00;;;23.70;59.30;;;;;;222393;1259;24199;-62
2023/05/06 00:53:55;;;;;;;26.50;16.80;;;23.70;59.40;;;;;;222607;1262;22574;-60
2023/05/06 00:59:00;;;;;;;29.40;17.20;;;23.70;59.70;;;;;;222440;1266;22505;-60
2023/05/06 01:04:06;;;;;;;24.40;16.40;;;23.60;59.40;;;;;;222515;1268;22763;-59
2023/05/06 01:09:23;;;;;;;23.70;16.10;;;23.70;59.30;;;;;;222405;1264;22517;-66
2023/05/06 01:14:38;;;;;;;27.60;15.90;;;23.70;59.30;;;;;;222440;1266;22622;-60
2023/05/06 01:19:54;;;;;;;23.30;15.70;;;23.70;59.60;;;;;;222859;1263;22775;-59
2023/05/06 01:25:00;;;;;;;26.10;16.20;;;23.70;59.10;;;;;;222645;1257;22786;-62
2023/05/06 01:30:06;;;;;;;23.90;14.70;;;23.60;59.30;;;;;;222656;1263;25264;-61
2023/05/06 01:35:20;;;;;;;23.30;14.10;;;23.60;59.40;;;;;;222853;1262;22660;-65
2023/05/06 01:40:27;;;;;;;21.00;14.10;;;23.70;59.10;;;;;;222723;1267;22626;-62
2023/05/06 01:45:34;;;;;;;21.70;14.10;;;23.60;59.10;;;;;;222709;1260;22504;-60
2023/05/06 01:50:40;;;;;;;21.20;13.90;;;23.60;59.30;;;;;;222966;1257;22511;-58
2023/05/06 01:55:44;;;;;;;22.10;14.40;;;23.60;59.40;;;;;;222891;1266;23059;-62
2023/05/06 02:00:48;;;;;;;18.20;13.70;;;23.60;59.10;;;;;;222540;1264;22758;-60
2023/05/06 02:05:53;;;;;;;19.30;13.20;;;23.50;59.00;;;;;;222594;1268;24183;-60
2023/05/06 02:10:58;;;;;;;19.40;13.00;;;23.50;59.10;;;;;;222478;1263;348796;-59
2023/05/06 02:16:03;;;;;;;19.50;13.20;;;23.50;58.90;;;;;;222638;1254;22634;-59
2023/05/06 02:21:09;;;;;;;19.80;13.50;;;23.50;59.30;;;;;;222503;1255;25214;-63
2023/05/06 02:26:13;;;;;;;18.50;12.80;;;23.50;58.90;;;;;;222645;1266;26487;-60
2023/05/06 02:31:17;;;;;;;18.30;12.50;;;23.40;58.80;;;;;;222596;1259;22505;-60
2023/05/06 02:36:24;;;;;;;16.80;11.60;;;23.40;58.80;;;;;;222766;1267;22646;-59
2023/05/06 02:41:31;;;;;;;15.70;11.30;;;23.40;58.80;;;;;;222487;1264;22803;-62
2023/05/06 02:46:35;;;;;;;17.00;11.70;;;23.40;58.70;;;;;;222741;1267;25262;-58
2023/05/06 02:51:40;;;;;;;16.80;11.70;;;23.40;58.70;;;;;;222672;1256;22523;-60
2023/05/06 02:56:45;;;;;;;14.90;10.40;;;23.40;58.50;;;;;;222657;1266;22532;-60
2023/05/06 03:01:49;;;;;;;15.80;11.30;;;23.40;58.20;;;;;;222547;1263;22673;-60
2023/05/06 03:06:53;;;;;;;15.40;11.10;;;23.40;58.70;;;;;;222866;1248;22577;-59
2023/05/06 03:11:58;;;;;;;15.10;11.20;;;23.40;58.60;;;;;;223008;1266;22512;-60
2023/05/06 03:17:02;;;;;;;13.60;10.60;;;23.40;59.10;;;;;;222493;1265;22504;-59
2023/05/06 03:22:08;;;;;;;13.40;10.30;;;23.40;58.60;;;;;;222527;1264;22527;-59
2023/05/06 03:27:15;;;;;;;13.80;9.50;;;23.30;58.60;;;;;;222873;1264;25320;-59
2023/05/06 03:32:21;;;;;;;15.70;9.90;;;23.30;58.70;;;;;;222744;1266;22514;-60
2023/05/06 03:37:25;;;;;;;14.20;9.90;;;23.20;59.10;;;;;;222827;1269;22514;-58
2023/05/06 03:42:30;;;;;;;14.30;9.40;;;23.20;58.70;;;;;;222616;1263;25207;-62
2023/05/06 03:47:36;;;;;;;12.90;10.20;;;23.20;58.80;;;;;;222593;1264;22599;-59
2023/05/06 03:52:42;;;;;;;13.50;10.20;;;23.20;59.00;;;;;;223326;1267;25380;-59
2023/05/06 03:57:49;;;;;;;11.70;9.40;;;23.20;58.70;;;;;;222826;1264;23066;-60
2023/05/06 04:02:54;;;;;;;11.70;9.00;;;23.20;58.60;;;;;;222771;1263;24174;-59
2023/05/06 04:08:05;;;;;;;14.60;9.40;;;23.10;58.70;;;;;;223309;1268;22504;-59
2023/05/06 04:13:09;;;;;;;12.50;8.90;;;23.20;58.80;;;;;;222801;1257;25477;-61
2023/05/06 04:18:18;;;;;;;13.30;9.50;;;23.20;58.70;;;;;;222819;1263;25824;-59
2023/05/06 04:23:31;;;;;;;12.90;9.30;;;23.10;58.60;;;;;;222760;1266;22511;-58
2023/05/06 04:28:36;;;;;;;12.30;8.70;;;23.10;58.60;;;;;;222544;1269;22517;-60
2023/05/06 04:33:42;;;;;;;10.40;8.20;;;23.10;59.00;;;;;;222983;1259;24240;-60
2023/05/06 04:38:51;;;;;;;10.40;8.20;;;23.10;58.60;;;;;;222829;1268;22525;-59
2023/05/06 04:43:56;;;;;;;9.70;7.60;;;23.10;58.80;;;;;;222758;1246;24250;-58
2023/05/06 04:49:01;;;;;;;8.00;7.20;;;23.10;58.60;;;;;;222717;1267;25222;-59
2023/05/06 04:54:05;;;;;;;9.20;8.10;;;23.20;58.60;;;;;;223296;1266;22504;-62
2023/05/06 04:59:10;;;;;;;8.70;7.80;;;23.10;58.20;;;;;;222506;1265;24408;-60
2023/05/06 05:04:15;;;;;;;9.20;7.60;;;23.00;58.60;;;;;;222807;1263;22513;-59
2023/05/06 05:09:20;;;;;;;11.20;8.30;;;23.10;58.50;;;;;;222685;1269;22503;-62
2023/05/06 05:14:25;;;;;;;9.10;6.80;;;23.10;58.50;;;;;;223218;1269;22623;-59
2023/05/06 05:19:29;;;;;;;8.70;6.60;;;23.50;58.30;;;;;;223281;1266;23943;-62
2023/05/06 05:24:34;;;;;;;8.90;6.70;;;23.70;57.90;;;;;;222608;1268;22644;-58
2023/05/06 05:29:41;;;;;;;8.40;6.00;;;23.90;57.10;;;;;;222555;1266;22633;-59
2023/05/06 05:34:46;;;;;;;7.50;6.30;;;24.00;56.80;;;;;;222469;1268;25455;-60
2023/05/06 05:39:51;;;;;;;6.50;5.80;;;24.10;56.60;;;;;;222817;1268;25582;-62
2023/05/06 05:44:55;;;;;;;8.40;6.20;;;24.20;56.20;;;;;;222627;1268;22653;-60
2023/05/06 05:50:00;;;;;;;7.00;5.90;;;24.30;56.10;;;;;;222642;1264;22510;-59
2023/05/06 05:55:06;;;;;;;7.90;6.00;;;24.40;56.30;;;;;;222953;1257;24655;-59
2023/05/06 06:00:12;;;;;;;7.40;5.40;;;24.50;55.80;;;;;;222550;1266;25302;-60
2023/05/06 06:05:24;;;;;;;8.80;5.50;;;24.50;55.60;;;;;;222818;1264;22497;-59
2023/05/06 06:10:28;;;;;;;5.70;5.20;;;24.70;55.80;;;;;;222830;1269;22522;-58
2023/05/06 06:15:39;;;;;;;5.90;5.30;;;24.60;55.30;;;;;;222616;1262;22508;-59
2023/05/06 06:20:43;;;;;;;5.60;5.10;;;24.60;55.40;;;;;;222447;1266;22521;-63
2023/05/06 06:25:49;;;;;;;5.40;4.90;;;24.40;56.20;;;;;;222559;1266;22518;-60
2023/05/06 06:30:53;;;;;;;6.80;5.90;;;24.30;56.30;;;;;;222352;1269;22515;-59
2023/05/06 06:35:57;;;;;;;6.50;5.20;;;24.30;56.30;;;;;;222776;1257;22687;-60
2023/05/06 06:41:01;;;;;;;5.70;5.00;;;24.40;56.10;;;;;;222843;1267;23412;-59
2023/05/06 06:46:06;;;;;;;6.20;5.60;;;24.50;55.70;;;;;;223119;1264;22511;-60
2023/05/06 06:51:10;;;;;;;6.00;5.40;;;24.50;56.10;;;;;;222950;1263;24236;-59
2023/05/06 06:56:17;;;;;;;6.00;5.40;;;24.40;56.00;;;;;;222560;1264;22530;-57
2023/05/06 07:01:23;;;;;;;5.80;5.20;;;24.30;56.60;;;;;;222604;1269;22523;-60
2023/05/06 07:06:27;;;;;;;5.80;5.00;;;24.30;57.20;;;;;;222476;1269;24052;-60
2023/05/06 07:11:31;;;;;;;5.80;5.20;;;24.20;56.00;;;;;;222520;1269;22532;-60
2023/05/06 07:16:35;;;;;;;5.40;4.90;;;24.20;55.90;;;;;;222620;1264;25385;-60
2023/05/06 07:21:40;;;;;;;6.00;5.10;;;24.10;56.00;;;;;;222399;1269;22520;-59
2023/05/06 07:26:44;;;;;;;5.80;4.80;;;24.10;56.10;;;;;;222449;1267;22569;-59
2023/05/06 07:31:48;;;;;;;6.10;4.90;;;24.00;57.00;;;;;;222392;1257;24378;-59
2023/05/06 07:36:53;;;;;;;6.90;5.20;;;23.90;57.30;;;;;;222175;1264;24298;-60
2023/05/06 07:41:57;;;;;;;12.30;6.00;;;23.90;56.80;;;;;;222192;1267;22529;-59
2023/05/06 07:47:01;;;;;;;6.20;5.30;;;23.90;56.80;;;;;;222250;1267;22647;-58
2023/05/06 07:52:06;;;;;;;6.90;5.60;;;23.80;57.10;;;;;;222244;1258;24289;-60
2023/05/06 07:57:10;;;;;;;8.40;5.20;;;23.70;57.30;;;;;;222343;1254;22781;-59
2023/05/06 08:02:15;;;;;;;6.30;5.30;;;23.70;57.40;;;;;;222545;1263;22505;-59
2023/05/06 08:07:19;;;;;;;10.80;5.30;;;23.70;56.90;;;;;;222995;1267;22547;-62
2023/05/06 08:12:23;;;;;;;16.40;5.90;;;23.70;57.10;;;;;;222431;1264;25371;-58
2023/05/06 08:17:28;;;;;;;10.20;5.30;;;23.70;57.50;;;;;;224594;1268;25515;-58
2023/05/06 08:22:33;;;;;;;13.10;5.80;;;23.70;57.60;;;;;;222645;1264;24356;-59
2023/05/06 08:27:36;;;;;;;9.30;5.70;;;23.70;57.90;;;;;;222815;1268;22635;-58
2023/05/06 08:32:41;;;;;;;7.40;5.10;;;23.60;58.30;;;;;;222644;1254;22616;-58
2023/05/06 08:37:45;;;;;;;12.70;5.00;;;23.60;58.40;;;;;;222683;1264;22521;-60
2023/05/06 08:42:49;;;;;;;6.40;5.60;;;23.60;58.30;;;;;;222446;1266;22588;-58
2023/05/06 08:47:53;;;;;;;9.30;4.80;;;23.60;58.80;;;;;;222512;1264;22599;-57
2023/05/06 08:52:59;;;;;;;9.50;4.70;;;23.60;58.70;;;;;;222665;1267;22515;-57
2023/05/06 08:58:06;;;;;;;8.80;4.90;;;23.60;59.00;;;;;;222315;1266;22602;-59
2023/05/06 09:03:10;;;;;;;7.50;4.70;;;23.60;60.10;;;;;;222671;1266;23129;-58
2023/05/06 09:08:14;;;;;;;5.10;4.60;;;23.60;59.30;;;;;;222275;1264;23902;-59
2023/05/06 09:13:18;;;;;;;12.10;6.00;;;23.70;59.50;;;;;;222326;1266;23013;-58
2023/05/06 09:18:22;;;;;;;23.90;6.30;;;23.60;59.90;;;;;;222334;1264;23873;-59
2023/05/06 09:23:26;;;;;;;13.30;5.10;;;23.60;60.50;;;;;;222604;1255;24247;-59
2023/05/06 09:28:32;;;;;;;16.10;5.40;;;23.60;60.30;;;;;;222602;1253;23197;-59
2023/05/06 09:33:36;;;;;;;10.80;5.70;;;23.70;59.60;;;;;;222968;1265;22631;-58
2023/05/06 09:38:41;;;;;;;9.80;5.00;;;23.70;59.40;;;;;;222489;1265;22528;-58
2023/05/06 09:43:47;;;;;;;7.60;4.20;;;23.80;59.70;;;;;;222531;1265;24229;-58
2023/05/06 09:48:54;;;;;;;23.80;5.90;;;23.70;59.00;;;;;;222587;1261;24584;-57
2023/05/06 09:54:00;;;;;;;15.80;5.50;;;23.70;60.20;;;;;;222626;1263;25217;-60
2023/05/06 09:59:06;;;;;;;201.60;90.10;;;23.60;60.00;;;;;;222633;1246;24335;-60
2023/05/06 10:04:12;;;;;;;97.40;46.20;;;23.50;60.50;;;;;;222890;1254;22633;-60
2023/05/06 10:09:17;;;;;;;158.10;72.50;;;23.60;59.80;;;;;;222663;1263;26297;-59
2023/05/06 10:14:21;;;;;;;150.60;69.60;;;23.50;60.50;;;;;;222888;1263;22507;-57
2023/05/06 10:19:26;;;;;;;147.30;69.50;;;23.50;60.20;;;;;;222773;1267;22517;-58
2023/05/06 10:24:36;;;;;;;122.70;63.40;;;23.70;60.90;;;;;;222611;1264;24262;-57
2023/05/06 10:29:41;;;;;;;129.10;59.10;;;23.70;61.10;;;;;;222594;1263;22774;-56
2023/05/06 10:34:55;;;;;;;111.60;54.60;;;23.80;61.00;;;;;;224676;1263;22657;-58
2023/05/06 10:40:03;;;;;;;98.80;50.80;;;24.00;60.70;;;;;;222558;1269;22637;-58
2023/05/06 10:45:09;;;;;;;101.90;49.30;;;24.00;61.00;;;;;;222653;1263;24364;-58
2023/05/06 10:50:21;;;;;;;87.80;47.10;;;24.00;60.50;;;;;;222551;1253;24237;-58
2023/05/06 10:55:28;;;;;;;82.30;44.20;;;23.90;60.40;;;;;;222435;1263;22595;-58
2023/05/06 11:00:34;;;;;;;81.50;41.50;;;23.90;60.30;;;;;;222883;1259;22623;-58
2023/05/06 11:05:52;;;;;;;68.60;38.80;;;23.90;60.10;;;;;;222977;1263;22517;-60
2023/05/06 11:10:56;;;;;;;71.00;38.50;;;23.90;60.40;;;;;;222546;1263;22525;-58
2023/05/06 11:16:01;;;;;;;76.60;37.50;;;23.80;60.30;;;;;;222639;1263;25401;-58
2023/05/06 11:21:05;;;;;;;65.70;35.00;;;23.70;60.80;;;;;;222646;1256;25265;-59
2023/05/06 11:26:11;;;;;;;68.80;35.40;;;23.70;60.30;;;;;;222907;1264;25785;-59
2023/05/06 11:31:15;;;;;;;62.50;33.70;;;23.70;60.10;;;;;;222631;1263;24314;-60
2023/05/06 11:36:20;;;;;;;62.50;32.20;;;23.70;60.30;;;;;;222556;1266;25210;-58
2023/05/06 11:41:24;;;;;;;57.40;31.20;;;23.80;60.30;;;;;;222525;1267;22534;-63
2023/05/06 11:46:32;;;;;;;60.10;30.80;;;23.80;60.30;;;;;;222643;1266;25417;-58
2023/05/06 11:51:38;;;;;;;53.60;27.70;;;23.90;60.70;;;;;;222786;1262;25213;-55
2023/05/06 11:56:51;;;;;;;60.00;30.40;;;23.90;60.10;;;;;;222479;1262;24751;-56
2023/05/06 12:01:57;;;;;;;52.70;28.20;;;23.80;60.60;;;;;;222734;1266;25284;-56
2023/05/06 12:07:05;;;;;;;48.90;26.80;;;23.70;60.70;;;;;;223038;1263;22630;-62
2023/05/06 12:12:11;;;;;;;58.60;30.20;;;23.60;60.50;;;;;;222898;1247;22650;-60
2023/05/06 12:17:17;;;;;;;45.50;26.90;;;23.60;61.90;;;;;;222641;1263;24196;-57
2023/05/06 12:22:25;;;;;;;50.50;27.20;;;23.60;62.90;;;;;;222476;1256;23272;-59
2023/05/06 12:27:35;;;;;;;49.10;26.10;;;23.70;62.60;;;;;;222550;1256;22632;-57
2023/05/06 12:32:56;;;;;;;61.00;27.50;;;23.60;62.00;;;;;;222533;1246;22501;-58
2023/05/06 12:38:15;;;;;;;47.40;24.40;;;23.60;62.70;;;;;;222365;1262;25226;-58
2023/05/06 12:43:29;;;;;;;40.10;23.50;;;23.80;61.40;;;;;;222343;1257;22527;-57
2023/05/06 12:48:33;;;;;;;41.80;23.70;;;23.80;61.30;;;;;;222387;1263;23028;-55
2023/05/06 12:53:38;;;;;;;44.20;23.20;;;23.70;61.30;;;;;;222940;1257;22930;-52
2023/05/06 12:58:42;;;;;;;42.50;24.20;;;23.70;61.20;;;;;;222473;1268;22644;-50
2023/05/06 13:03:47;;;;;;;44.40;24.00;;;23.70;61.00;;;;;;222210;1263;24286;-54
2023/05/06 13:08:51;;;;;;;36.50;22.40;;;23.60;60.40;;;;;;221734;1265;22659;-55
2023/05/06 13:13:55;;;;;;;33.40;20.40;;;23.80;60.10;;;;;;229756;1267;22956;-57
2023/05/06 13:19:00;;;;;;;32.00;20.50;;;24.00;59.20;;;;;;229883;1269;22158;-56
2023/05/06 13:24:06;;;;;;;33.10;21.40;;;24.10;58.90;;;;;;227349;1269;24201;-55
2023/05/06 13:29:10;;;;;;;31.30;20.90;;;24.10;58.80;;;;;;222948;1266;25658;-55
2023/05/06 13:34:14;;;;;;;30.60;20.30;;;23.90;59.00;;;;;;222453;1265;25261;-54
2023/05/06 13:39:19;;;;;;;32.10;21.10;;;23.70;59.20;;;;;;222268;1269;22521;-55
2023/05/06 13:44:24;;;;;;;31.60;20.70;;;23.70;59.20;;;;;;222140;1263;22510;-54
2023/05/06 13:49:28;;;;;;;27.30;19.00;;;23.60;59.20;;;;;;222381;1268;22531;-54
2023/05/06 13:54:33;;;;;;;32.80;21.40;;;23.60;59.30;;;;;;222475;1263;22511;-55
2023/05/06 13:59:38;;;;;;;32.20;19.30;;;23.60;59.40;;;;;;222211;1262;22523;-55
2023/05/06 14:04:44;;;;;;;28.60;18.40;;;23.60;59.30;;;;;;222574;1268;22588;-56
2023/05/06 14:09:49;;;;;;;25.20;18.50;;;23.50;59.70;;;;;;222018;1263;188140;-58
2023/05/06 14:14:53;;;;;;;24.80;18.20;;;23.50;59.60;;;;;;222349;1260;24043;-57
2023/05/06 14:19:57;;;;;;;31.10;19.70;;;23.50;59.10;;;;;;222382;1256;24330;-55
2023/05/06 14:25:03;;;;;;;24.50;17.10;;;23.40;59.00;;;;;;222275;1269;22508;-53
2023/05/06 14:30:08;;;;;;;25.20;17.40;;;23.40;58.90;;;;;;222546;1263;25325;-56
2023/05/06 14:35:14;;;;;;;21.90;16.40;;;23.40;59.00;;;;;;222482;1256;24197;-55
2023/05/06 14:40:18;;;;;;;22.30;16.00;;;23.40;59.00;;;;;;222658;1266;22514;-55
2023/05/06 14:45:23;;;;;;;22.20;16.40;;;23.30;58.90;;;;;;222604;1265;22543;-53
2023/05/06 14:50:28;;;;;;;26.40;16.90;;;23.30;58.60;;;;;;221124;1269;24264;-54
2023/05/06 14:55:34;;;;;;;22.60;16.30;;;23.30;58.60;;;;;;221333;1258;24265;-54
2023/05/06 15:00:40;;;;;;;21.90;15.10;;;23.30;58.50;;;;;;221282;1264;24263;-56
2023/05/06 15:05:44;;;;;;;18.70;15.40;;;23.30;58.50;;;;;;221496;1269;25255;-53
2023/05/06 15:10:49;;;;;;;21.00;16.00;;;23.30;58.50;;;;;;222989;1263;22883;-56
2023/05/06 15:15:54;;;;;;;19.00;15.60;;;23.20;58.40;;;;;;222755;1263;22522;-55
2023/05/06 15:21:00;;;;;;;19.90;14.30;;;23.20;58.70;;;;;;223058;1268;24283;-56
2023/05/06 15:26:04;;;;;;;19.70;14.20;;;23.10;58.30;;;;;;222751;1263;25471;-55
2023/05/06 15:31:08;;;;;;;17.80;13.40;;;23.10;58.30;;;;;;222824;1267;25395;-61
2023/05/06 15:36:13;;;;;;;17.80;13.70;;;23.10;58.30;;;;;;223087;1262;22599;-57
2023/05/06 15:41:18;;;;;;;16.50;13.20;;;23.10;58.30;;;;;;222732;1266;22508;-56
2023/05/06 15:46:23;;;;;;;17.50;14.30;;;23.00;58.80;;;;;;222948;1268;23926;-55
2023/05/06 15:51:27;;;;;;;15.40;12.00;;;23.00;58.10;;;;;;222835;1256;22737;-55
2023/05/06 15:56:32;;;;;;;15.60;13.00;;;23.00;58.10;;;;;;222812;1262;22589;-54
2023/05/06 16:01:44;;;;;;;16.20;12.70;;;23.00;58.10;;;;;;222830;1266;22611;-57
2023/05/06 16:06:51;;;;;;;17.70;13.30;;;23.00;58.00;;;;;;222568;1269;24043;-56
2023/05/06 16:11:56;;;;;;;15.10;12.40;;;23.00;57.90;;;;;;222569;1263;22976;-56
2023/05/06 16:17:00;;;;;;;15.60;12.60;;;22.90;58.00;;;;;;222636;1263;22511;-54
2023/05/06 16:22:04;;;;;;;14.40;11.70;;;22.90;57.90;;;;;;222392;1262;24424;-59
2023/05/06 16:27:08;;;;;;;17.10;12.70;;;22.90;57.90;;;;;;222622;1265;22591;-55
2023/05/06 16:32:13;;;;;;;17.80;12.40;;;22.90;57.80;;;;;;222470;1263;22527;-54
2023/05/06 16:37:17;;;;;;;15.20;11.70;;;22.90;57.80;;;;;;222524;1269;25235;-56
2023/05/06 16:42:21;;;;;;;14.40;11.60;;;22.80;57.80;;;;;;222140;1252;23900;-53
2023/05/06 16:47:25;;;;;;;12.70;11.30;;;22.80;57.70;;;;;;222397;1263;22640;-55
2023/05/06 16:52:30;;;;;;;14.40;11.20;;;22.80;58.10;;;;;;222174;1263;22657;-56
2023/05/06 16:57:35;;;;;;;12.80;10.60;;;22.90;57.50;;;;;;222653;1263;22513;-55
2023/05/06 17:02:39;;;;;;;12.90;10.60;;;23.10;57.00;;;;;;222766;1268;24197;-56
2023/05/06 17:07:45;;;;;;;12.00;9.70;;;23.50;55.80;;;;;;222674;1257;24095;-57
2023/05/06 17:12:50;;;;;;;11.80;10.10;;;23.70;55.20;;;;;;222601;1266;25370;-55
2023/05/06 17:17:55;;;;;;;15.40;9.60;;;23.90;54.90;;;;;;222710;1263;24183;-56
2023/05/06 17:22:59;;;;;;;9.80;8.70;;;24.00;54.60;;;;;;222829;1254;24358;-56
2023/05/06 17:28:04;;;;;;;11.30;9.00;;;24.00;54.30;;;;;;222848;1266;24282;-55
2023/05/06 17:33:08;;;;;;;10.20;8.60;;;24.10;54.10;;;;;;222716;1256;22508;-56
2023/05/06 17:38:15;;;;;;;9.80;8.70;;;24.20;54.00;;;;;;222767;1269;24174;-57
2023/05/06 17:43:20;;;;;;;12.40;9.30;;;24.20;53.80;;;;;;222575;1267;22514;-56
2023/05/06 17:48:24;;;;;;;9.50;8.60;;;24.30;54.00;;;;;;222813;1259;22569;-57
2023/05/06 17:53:31;;;;;;;9.80;8.30;;;24.40;53.70;;;;;;222664;1263;24202;-54
2023/05/06 17:58:35;;;;;;;10.30;8.80;;;24.50;53.20;;;;;;222977;1269;25625;-57
2023/05/06 18:03:40;;;;;;;9.60;8.70;;;24.50;53.00;;;;;;222635;1269;24212;-55
2023/05/06 18:08:44;;;;;;;9.30;8.40;;;24.60;52.80;;;;;;222903;1269;23010;-57
2023/05/06 18:13:49;;;;;;;10.50;8.30;;;24.70;52.60;;;;;;223017;1266;22505;-58
2023/05/06 18:18:55;;;;;;;11.10;8.70;;;24.70;52.60;;;;;;222933;1268;22650;-55
2023/05/06 18:24:00;;;;;;;8.90;7.60;;;24.60;52.80;;;;;;222729;1266;24183;-57
2023/05/06 18:29:18;;;;;;;9.30;7.70;;;24.50;52.90;;;;;;223317;1263;22512;-55
2023/05/06 18:34:22;;;;;;;8.90;7.30;;;24.50;53.00;;;;;;222839;1255;22749;-54
2023/05/06 18:39:26;;;;;;;8.50;7.50;;;24.30;53.30;;;;;;222936;1264;22509;-56
2023/05/06 18:44:31;;;;;;;8.90;7.70;;;24.30;53.40;;;;;;222712;1263;22509;-59
2023/05/06 18:49:35;;;;;;;8.20;7.40;;;24.30;53.50;;;;;;222850;1266;24215;-58
2023/05/06 18:54:40;;;;;;;8.60;7.70;;;24.10;53.70;;;;;;222875;1266;23257;-55
2023/05/06 18:59:44;;;;;;;8.80;7.90;;;24.00;53.90;;;;;;222942;1269;22524;-58
2023/05/06 19:04:48;;;;;;;8.70;7.30;;;23.90;53.70;;;;;;222834;1257;22537;-58
2023/05/06 19:09:53;;;;;;;8.00;6.90;;;23.90;54.20;;;;;;222576;1266;26608;-58
2023/05/06 19:14:58;;;;;;;8.40;7.50;;;23.90;54.10;;;;;;222910;1262;25249;-54
2023/05/06 19:20:03;;;;;;;8.30;7.50;;;23.80;54.20;;;;;;222954;1267;25305;-58
2023/05/06 19:25:08;;;;;;;8.00;7.30;;;23.80;54.10;;;;;;223143;1268;22524;-60
2023/05/06 19:30:13;;;;;;;8.10;7.40;;;23.70;54.10;;;;;;222821;1269;25958;-59
2023/05/06 19:35:17;;;;;;;7.40;6.60;;;23.60;54.40;;;;;;223214;1266;25340;-56
2023/05/06 19:40:22;;;;;;;7.10;6.50;;;23.60;54.40;;;;;;222829;1250;24419;-54
2023/05/06 19:45:26;;;;;;;9.40;6.60;;;23.50;54.40;;;;;;222993;1268;23722;-58
2023/05/06 19:50:35;;;;;;;7.10;6.40;;;23.40;54.50;;;;;;222849;1263;22561;-56
2023/05/06 19:55:39;;;;;;;7.90;6.60;;;23.40;55.00;;;;;;222772;1269;22525;-55
2023/05/06 20:00:44;;;;;;;7.30;6.60;;;23.40;55.00;;;;;;222619;1269;22619;-59
2023/05/06 20:05:49;;;;;;;7.10;6.40;;;23.30;55.00;;;;;;222624;1266;22509;-56
2023/05/06 20:10:53;;;;;;;7.80;6.70;;;23.30;54.80;;;;;;222833;1269;24040;-57
2023/05/06 20:15:58;;;;;;;7.00;6.40;;;23.20;54.70;;;;;;222479;1269;24104;-54
2023/05/06 20:21:03;;;;;;;6.50;6.00;;;23.30;54.70;;;;;;222406;1266;22640;-61
2023/05/06 20:26:07;;;;;;;6.50;5.90;;;23.10;54.70;;;;;;223072;1267;25446;-53
2023/05/06 20:31:11;;;;;;;6.70;6.10;;;23.10;54.70;;;;;;223027;1266;22709;-54
2023/05/06 20:36:15;;;;;;;6.10;5.50;;;23.10;54.80;;;;;;222676;1263;22507;-55
2023/05/06 20:41:20;;;;;;;6.90;6.10;;;23.10;54.80;;;;;;222885;1264;25265;-57
2023/05/06 20:46:24;;;;;;;7.10;6.50;;;23.00;54.80;;;;;;222766;1259;25211;-53
2023/05/06 20:51:29;;;;;;;6.30;5.80;;;23.00;54.90;;;;;;222461;1266;25609;-58
2023/05/06 20:56:33;;;;;;;6.60;5.80;;;22.90;54.90;;;;;;222927;1260;24209;-54
2023/05/06 21:01:38;;;;;;;6.70;6.10;;;22.90;54.90;;;;;;223087;1263;24203;-53
2023/05/06 21:06:42;;;;;;;6.10;5.50;;;22.90;55.00;;;;;;222903;1267;22518;-54
2023/05/06 21:11:47;;;;;;;5.60;5.10;;;23.20;54.30;;;;;;223017;1263;22648;-59
2023/05/06 21:16:51;;;;;;;6.00;5.40;;;23.50;53.30;;;;;;222784;1246;23885;-56
2023/05/06 21:21:56;;;;;;;7.10;5.40;;;23.80;52.50;;;;;;223285;1263;22540;-54
2023/05/06 21:27:01;;;;;;;5.80;5.20;;;24.00;52.20;;;;;;222480;1268;22642;-59
2023/05/06 21:32:05;;;;;;;6.20;5.60;;;24.00;52.00;;;;;;222614;1266;22785;-59
2023/05/06 21:37:10;;;;;;;6.30;5.70;;;24.10;51.90;;;;;;222649;1263;22617;-55
2023/05/06 21:42:14;;;;;;;5.90;5.30;;;24.20;51.60;;;;;;222868;1266;22614;-57
2023/05/06 21:47:19;;;;;;;5.00;4.60;;;24.20;51.40;;;;;;222681;1269;24244;-57
2023/05/06 21:52:23;;;;;;;5.40;4.90;;;24.30;51.30;;;;;;222569;1268;22522;-53
2023/05/06 21:57:27;;;;;;;5.70;5.20;;;24.40;51.20;;;;;;223274;1266;25319;-57
2023/05/06 22:02:32;;;;;;;5.80;5.00;;;24.50;51.10;;;;;;222824;1268;22508;-56
2023/05/06 22:07:36;;;;;;;4.90;4.50;;;24.50;50.80;;;;;;222655;1269;25475;-55
2023/05/06 22:12:40;;;;;;;4.70;4.30;;;24.60;50.80;;;;;;222904;1263;22504;-54
2023/05/06 22:17:45;;;;;;;5.10;4.60;;;24.70;50.70;;;;;;223168;1266;22617;-55
2023/05/06 22:22:51;;;;;;;5.10;4.60;;;24.70;50.60;;;;;;222675;1268;22630;-56
2023/05/06 22:27:55;;;;;;;4.70;4.20;;;24.80;50.90;;;;;;222858;1264;22540;-60
2023/05/06 22:32:59;;;;;;;4.60;4.20;;;24.80;50.40;;;;;;222685;1265;24202;-56
2023/05/06 22:38:04;;;;;;;4.80;4.40;;;24.80;50.30;;;;;;222562;1254;22626;-60
2023/05/06 22:43:08;;;;;;;4.80;4.40;;;24.80;50.10;;;;;;222475;1264;22620;-55
2023/05/06 22:48:12;;;;;;;4.80;4.40;;;24.70;51.00;;;;;;222513;1259;22524;-52
2023/05/06 22:53:16;;;;;;;4.30;3.90;;;24.60;51.30;;;;;;222653;1268;22527;-57
2023/05/06 22:58:20;;;;;;;5.20;4.80;;;24.50;51.10;;;;;;222908;1254;22522;-56
2023/05/06 23:03:25;;;;;;;4.90;4.50;;;24.50;51.10;;;;;;222770;1268;22515;-58
2023/05/06 23:08:29;;;;;;;5.30;4.80;;;24.30;51.60;;;;;;222712;1256;24306;-56
2023/05/06 23:13:35;;;;;;;4.30;4.00;;;24.30;51.40;;;;;;222792;1266;22634;-57
2023/05/06 23:18:39;;;;;;;5.60;5.00;;;24.20;51.40;;;;;;222521;1269;25305;-60
2023/05/06 23:23:43;;;;;;;4.70;4.40;;;24.10;51.50;;;;;;223123;1266;22568;-56
2023/05/06 23:28:47;;;;;;;4.80;4.40;;;24.00;51.70;;;;;;222794;1263;22521;-61
2023/05/06 23:33:52;;;;;;;5.00;4.50;;;24.00;52.20;;;;;;222774;1266;22800;-55
2023/05/06 23:38:56;;;;;;;4.20;3.90;;;23.90;51.80;;;;;;222894;1256;24231;-54
2023/05/06 23:44:00;;;;;;;4.40;4.00;;;23.90;51.80;;;;;;222903;1266;22513;-55
2023/05/06 23:49:04;;;;;;;4.50;4.10;;;23.90;51.90;;;;;;223239;1263;22520;-56
2023/05/06 23:54:08;;;;;;;4.30;4.00;;;23.80;52.20;;;;;;222777;1266;22711;-60
2023/05/06 23:59:12;;;;;;;4.00;3.70;;;23.70;52.10;;;;;;222735;1269;22518;-58
